Time;durP1;ratioP1;P1;durP2;ratioP2;P2;SDS_P1;SDS_P2;PMS_P1;PMS_P2;Temp;Humidity;BMP_temperature;BMP_pressure;BME280_temperature;BME280_humidity;BME280_pressure;Samples;Min_cycle;Max_cycle;Signal;HPM_P1;HPM_P2
2022/02/16 00:00:11;;;;;;;;;;;;;;;29.57;21.02;101283.50;5075522;28;823;-44
2022/02/16 00:02:38;;;;;;;;;;;;;;;29.53;21.37;101288.44;5075058;28;815;-43
2022/02/16 00:05:04;;;;;;;;;;;;;;;29.49;20.49;101287.16;5078190;28;833;-44
2022/02/16 00:07:30;;;;;;;;;;;;;;;29.29;21.16;101285.00;5078289;28;833;-43
2022/02/16 00:09:55;;;;;;;;;;;;;;;29.29;21.53;101284.16;5078090;28;1012;-42
2022/02/16 00:12:20;;;;;;;;;;;;;;;29.47;21.43;101281.06;5078319;28;774;-43
2022/02/16 00:14:46;;;;;;;;;;;;;;;29.84;20.60;101281.19;5077626;28;783;-43
2022/02/16 00:17:11;;;;;;;;;;;;;;;29.85;20.59;101280.16;5075895;28;1953;-43
2022/02/16 00:19:36;;;;;;;;;;;;;;;29.28;21.39;101279.75;5077333;28;871;-43
2022/02/16 00:22:01;;;;;;;;;;;;;;;29.20;21.81;101283.38;5077842;28;725;-44
2022/02/16 00:24:27;;;;;;;;;;;;;;;29.30;21.58;101274.97;5077535;28;934;-44
2022/02/16 00:26:52;;;;;;;;;;;;;;;29.27;21.67;101272.63;5077656;28;857;-43
2022/02/16 00:29:17;;;;;;;;;;;;;;;29.39;21.37;101263.03;5077695;28;744;-43
2022/02/16 00:31:43;;;;;;;;;;;;;;;29.51;21.26;101266.09;5070453;28;1284;-43
2022/02/16 00:34:08;;;;;;;;;;;;;;;29.64;21.17;101256.50;5077310;28;1462;-43
2022/02/16 00:36:33;;;;;;;;;;;;;;;29.62;21.26;101262.13;5077366;28;1906;-43
2022/02/16 00:38:59;;;;;;;;;;;;;;;29.82;21.10;101259.69;5077549;28;901;-44
2022/02/16 00:41:24;;;;;;;;;;;;;;;30.11;20.55;101256.25;5077103;28;904;-43
2022/02/16 00:43:49;;;;;;;;;;;;;;;29.74;20.61;101258.94;5077003;28;967;-43
2022/02/16 00:46:15;;;;;;;;;;;;;;;29.82;20.88;101251.53;5072247;28;878;-43
2022/02/16 00:48:40;;;;;;;;;;;;;;;30.00;20.85;101244.00;5077818;28;832;-44
2022/02/16 00:51:05;;;;;;;;;;;;;;;29.86;20.93;101249.31;5076817;28;904;-43
2022/02/16 00:53:31;;;;;;;;;;;;;;;29.72;21.35;101247.44;5077356;28;963;-43
2022/02/16 00:55:56;;;;;;;;;;;;;;;29.55;21.29;101240.31;5076995;28;1906;-43
2022/02/16 00:58:21;;;;;;;;;;;;;;;29.42;21.65;101232.84;5077179;28;904;-44
2022/02/16 01:00:48;;;;;;;;;;;;;;;29.14;21.74;101230.78;5071769;28;890;-43
2022/02/16 01:03:13;;;;;;;;;;;;;;;29.13;21.50;101228.25;5077018;28;864;-44
2022/02/16 01:05:38;;;;;;;;;;;;;;;29.09;21.43;101228.59;5077069;28;810;-43
2022/02/16 01:08:07;;;;;;;;;;;;;;;29.04;21.53;101235.63;5077159;28;801;-43
2022/02/16 01:10:33;;;;;;;;;;;;;;;28.88;22.17;101231.19;5075846;28;893;-43
2022/02/16 01:12:58;;;;;;;;;;;;;;;29.05;22.03;101226.47;5076676;28;939;-43
2022/02/16 01:15:24;;;;;;;;;;;;;;;29.27;21.97;101221.16;5073563;28;938;-43
2022/02/16 01:17:50;;;;;;;;;;;;;;;29.66;21.24;101228.19;5076923;28;1968;-43
2022/02/16 01:20:16;;;;;;;;;;;;;;;29.40;21.11;101218.63;5077276;28;881;-42
2022/02/16 01:22:41;;;;;;;;;;;;;;;29.05;21.70;101210.22;5076389;28;831;-43
2022/02/16 01:25:07;;;;;;;;;;;;;;;29.09;21.91;101211.53;5076774;28;781;-43
2022/02/16 01:27:32;;;;;;;;;;;;;;;29.15;21.94;101213.50;5070317;28;1073;-44
2022/02/16 01:29:57;;;;;;;;;;;;;;;29.17;21.60;101210.59;5076259;28;873;-43
2022/02/16 01:32:23;;;;;;;;;;;;;;;29.27;21.68;101211.16;5070511;28;1296;-43
2022/02/16 01:34:48;;;;;;;;;;;;;;;29.35;21.51;101207.53;5075978;28;872;-42
2022/02/16 01:37:13;;;;;;;;;;;;;;;29.49;21.40;101203.13;5076491;28;1910;-43
2022/02/16 01:39:39;;;;;;;;;;;;;;;29.58;21.33;101195.72;5076826;28;841;-42
2022/02/16 01:42:04;;;;;;;;;;;;;;;29.62;21.52;101197.06;5076104;28;754;-43
2022/02/16 01:44:30;;;;;;;;;;;;;;;29.69;21.16;101197.16;5076241;28;838;-43
2022/02/16 01:47:04;;;;;;;;;;;;;;;29.74;21.23;101197.44;5072244;28;882;-43
2022/02/16 01:49:29;;;;;;;;;;;;;;;30.12;20.67;101199.09;5076452;28;993;-42
2022/02/16 01:51:55;;;;;;;;;;;;;;;30.16;20.71;101200.38;5076576;28;861;-43
2022/02/16 01:54:20;;;;;;;;;;;;;;;29.74;20.95;101196.56;5076471;28;846;-43
2022/02/16 01:56:47;;;;;;;;;;;;;;;29.49;21.42;101186.88;5076338;28;1897;-43
2022/02/16 01:59:15;;;;;;;;;;;;;;;29.58;21.52;101185.72;5075903;28;1175;-42
2022/02/16 02:01:40;;;;;;;;;;;;;;;29.54;21.56;101172.75;5072030;28;922;-42
2022/02/16 02:04:06;;;;;;;;;;;;;;;29.63;21.71;101168.91;5076256;28;841;-43
2022/02/16 02:06:31;;;;;;;;;;;;;;;29.62;21.48;101169.97;5076194;28;872;-43
2022/02/16 02:08:56;;;;;;;;;;;;;;;30.06;21.04;101180.88;5076354;28;785;-42
2022/02/16 02:11:22;;;;;;;;;;;;;;;30.16;21.08;101177.84;5076259;28;1138;-44
2022/02/16 02:13:59;;;;;;;;;;;;;;;29.75;21.06;101173.84;5069787;28;753;-44
2022/02/16 02:16:25;;;;;;;;;;;;;;;29.52;21.65;101172.94;5072964;28;1898;-43
2022/02/16 02:18:50;;;;;;;;;;;;;;;29.66;21.63;101173.13;5075940;28;853;-43
2022/02/16 02:21:16;;;;;;;;;;;;;;;29.69;21.58;101178.16;5078653;28;943;-42
2022/02/16 02:23:41;;;;;;;;;;;;;;;29.80;21.52;101179.53;5083068;28;800;-43
2022/02/16 02:26:06;;;;;;;;;;;;;;;29.82;21.41;101180.19;5081896;28;912;-43
2022/02/16 02:28:32;;;;;;;;;;;;;;;29.86;21.41;101183.38;5082571;28;829;-44
2022/02/16 02:30:57;;;;;;;;;;;;;;;30.16;21.15;101184.09;5077570;28;906;-43
2022/02/16 02:33:22;;;;;;;;;;;;;;;30.32;20.67;101184.91;5081777;28;1216;-43
2022/02/16 02:35:48;;;;;;;;;;;;;;;30.10;21.06;101179.44;5082340;28;805;-43
2022/02/16 02:38:13;;;;;;;;;;;;;;;29.87;21.26;101185.03;5082553;28;1914;-43
2022/02/16 02:40:39;;;;;;;;;;;;;;;29.78;21.40;101187.03;5082401;28;936;-42
2022/02/16 02:43:06;;;;;;;;;;;;;;;29.72;21.15;101185.91;5082775;28;791;-43
2022/02/16 02:45:31;;;;;;;;;;;;;;;29.93;21.78;101190.53;5079186;28;959;-42
2022/02/16 02:47:56;;;;;;;;;;;;;;;29.84;21.37;101188.97;5082417;28;821;-42
2022/02/16 02:50:22;;;;;;;;;;;;;;;29.66;21.93;101189.41;5081899;28;868;-43
2022/02/16 02:52:47;;;;;;;;;;;;;;;29.55;21.92;101180.69;5082393;28;797;-42
2022/02/16 02:55:13;;;;;;;;;;;;;;;29.25;21.42;101183.41;5082482;28;805;-42
2022/02/16 02:57:38;;;;;;;;;;;;;;;29.32;21.30;101180.81;5082167;28;1962;-44
2022/02/16 03:00:04;;;;;;;;;;;;;;;29.30;21.85;101180.13;5080984;28;890;-43
2022/02/16 03:02:30;;;;;;;;;;;;;;;29.29;21.52;101182.03;5080686;28;1002;-43
2022/02/16 03:04:55;;;;;;;;;;;;;;;29.02;22.43;101180.78;5081792;28;820;-43
2022/02/16 03:07:20;;;;;;;;;;;;;;;29.14;22.41;101176.59;5082261;28;932;-43
2022/02/16 03:09:46;;;;;;;;;;;;;;;29.22;22.09;101186.50;5081833;28;944;-42
2022/02/16 03:12:11;;;;;;;;;;;;;;;29.36;22.04;101184.84;5082343;28;1154;-43
2022/02/16 03:14:36;;;;;;;;;;;;;;;29.82;21.22;101183.75;5082646;28;842;-43
2022/02/16 03:17:02;;;;;;;;;;;;;;;29.86;21.39;101184.22;5080042;28;1967;-43
2022/02/16 03:19:27;;;;;;;;;;;;;;;29.22;22.06;101181.09;5081585;28;818;-43
2022/02/16 03:21:52;;;;;;;;;;;;;;;29.18;22.04;101177.91;5081981;28;760;-43
2022/02/16 03:24:17;;;;;;;;;;;;;;;29.28;22.07;101179.50;5075732;28;871;-43
2022/02/16 03:26:43;;;;;;;;;;;;;;;29.29;22.13;101181.19;5081974;28;793;-43
2022/02/16 03:29:08;;;;;;;;;;;;;;;29.35;22.01;101177.72;5081984;28;826;-43
2022/02/16 03:31:33;;;;;;;;;;;;;;;29.42;22.05;101173.22;5074915;28;1239;-42
2022/02/16 03:33:59;;;;;;;;;;;;;;;29.50;21.85;101174.97;5078074;28;773;-43
2022/02/16 03:36:26;;;;;;;;;;;;;;;29.64;21.92;101180.59;5078697;28;1906;-43
2022/02/16 03:38:51;;;;;;;;;;;;;;;29.79;21.67;101170.56;5079065;28;919;-43
2022/02/16 03:41:16;;;;;;;;;;;;;;;29.80;21.68;101174.09;5070144;28;1581;-44
2022/02/16 03:43:42;;;;;;;;;;;;;;;29.93;21.53;101168.84;5078299;28;1437;-43
2022/02/16 03:46:07;;;;;;;;;;;;;;;30.32;20.70;101174.03;5076022;28;812;-43
2022/02/16 03:48:33;;;;;;;;;;;;;;;30.16;21.14;101175.94;5078149;28;874;-43
2022/02/16 03:50:58;;;;;;;;;;;;;;;29.53;21.85;101169.19;5078041;28;1095;-43
2022/02/16 03:53:24;;;;;;;;;;;;;;;29.52;21.87;101161.25;5078416;28;795;-43
2022/02/16 03:55:49;;;;;;;;;;;;;;;29.34;20.99;101163.31;5072332;28;745;-43
2022/02/16 03:58:15;;;;;;;;;;;;;;;29.36;20.89;101159.59;5078483;28;1902;-43
2022/02/16 04:00:40;;;;;;;;;;;;;;;29.20;20.35;101161.47;5075410;28;856;-43
2022/02/16 04:03:06;;;;;;;;;;;;;;;29.20;19.35;101161.47;5078008;28;1059;-44
2022/02/16 04:05:31;;;;;;;;;;;;;;;28.31;19.39;101166.50;5077254;28;1139;-44
2022/02/16 04:07:56;;;;;;;;;;;;;;;27.94;19.44;101163.53;5075600;28;1174;-43
2022/02/16 04:10:22;;;;;;;;;;;;;;;27.75;19.61;101163.81;5075682;28;1098;-44
2022/02/16 04:12:47;;;;;;;;;;;;;;;27.49;19.31;101169.47;5064186;28;1355;-45
2022/02/16 04:15:14;;;;;;;;;;;;;;;27.35;19.25;101160.25;5062773;28;1336;-43
2022/02/16 04:17:41;;;;;;;;;;;;;;;27.37;19.37;101163.63;5060205;28;1915;-43
2022/02/16 04:20:06;;;;;;;;;;;;;;;27.22;19.46;101156.25;5065762;28;1325;-44
2022/02/16 04:22:32;;;;;;;;;;;;;;;27.04;19.86;101147.50;5077903;28;829;-43
2022/02/16 04:24:57;;;;;;;;;;;;;;;26.99;19.66;101150.72;5077798;28;778;-45
2022/02/16 04:27:22;;;;;;;;;;;;;;;26.88;20.36;101155.44;5092964;28;851;-44
2022/02/16 04:29:47;;;;;;;;;;;;;;;27.30;20.25;101157.22;5077334;28;888;-43
2022/02/16 04:32:13;;;;;;;;;;;;;;;27.69;19.64;101163.69;5077095;28;1184;-43
2022/02/16 04:34:38;;;;;;;;;;;;;;;27.42;19.37;101163.94;5077585;28;828;-44
2022/02/16 04:37:03;;;;;;;;;;;;;;;27.14;19.68;101156.28;5077572;28;1902;-45
2022/02/16 04:39:29;;;;;;;;;;;;;;;26.64;19.49;101153.63;5077206;28;742;-44
2022/02/16 04:41:54;;;;;;;;;;;;;;;26.27;19.55;101162.03;5077588;28;837;-44
2022/02/16 04:44:20;;;;;;;;;;;;;;;26.04;19.31;101168.03;5076755;28;1165;-45
2022/02/16 04:46:45;;;;;;;;;;;;;;;25.55;18.64;101161.50;5073694;28;1202;-45
2022/02/16 04:49:10;;;;;;;;;;;;;;;24.60;18.97;101156.84;5077627;28;848;-44
2022/02/16 04:51:35;;;;;;;;;;;;;;;24.55;18.62;101160.88;5077025;28;928;-44
2022/02/16 04:54:01;;;;;;;;;;;;;;;24.23;19.05;101159.56;5076897;28;841;-43
2022/02/16 04:56:26;;;;;;;;;;;;;;;24.60;19.77;101164.91;5077210;28;1967;-43
2022/02/16 04:58:52;;;;;;;;;;;;;;;24.72;19.70;101169.06;5076018;28;777;-41
2022/02/16 05:01:20;;;;;;;;;;;;;;;25.74;19.44;101175.72;5074373;28;1226;-42
2022/02/16 05:03:46;;;;;;;;;;;;;;;26.75;18.43;101169.47;5076676;28;1202;-43
2022/02/16 05:06:11;;;;;;;;;;;;;;;26.85;19.50;101174.69;5077063;28;782;-44
2022/02/16 05:08:36;;;;;;;;;;;;;;;26.57;19.85;101179.59;5077488;28;784;-43
2022/02/16 05:11:02;;;;;;;;;;;;;;;26.46;20.18;101188.88;5076270;28;1075;-42
2022/02/16 05:13:27;;;;;;;;;;;;;;;26.37;20.47;101186.19;5076619;28;904;-41
2022/02/16 05:15:53;;;;;;;;;;;;;;;26.31;20.23;101185.97;5076561;28;859;-42
2022/02/16 05:18:18;;;;;;;;;;;;;;;26.46;20.07;101187.00;5074586;28;2020;-42
2022/02/16 05:20:43;;;;;;;;;;;;;;;26.38;19.95;101184.31;5076212;28;1257;-42
2022/02/16 05:23:09;;;;;;;;;;;;;;;26.61;20.38;101189.06;5074384;28;1320;-42
2022/02/16 05:25:34;;;;;;;;;;;;;;;26.46;20.06;101187.00;5076560;28;868;-43
2022/02/16 05:27:59;;;;;;;;;;;;;;;26.34;20.37;101188.38;5076459;28;849;-42
2022/02/16 05:30:24;;;;;;;;;;;;;;;26.17;21.02;101189.13;5071831;28;819;-42
2022/02/16 05:32:50;;;;;;;;;;;;;;;26.16;21.24;101186.59;5076098;28;1158;-42
2022/02/16 05:35:15;;;;;;;;;;;;;;;26.27;20.94;101183.63;5076442;28;841;-42
2022/02/16 05:37:40;;;;;;;;;;;;;;;26.66;20.70;101194.75;5072161;28;1975;-42
2022/02/16 05:40:06;;;;;;;;;;;;;;;27.10;20.19;101196.28;5076565;28;814;-42
2022/02/16 05:42:31;;;;;;;;;;;;;;;27.25;20.12;101204.50;5076382;28;785;-41
2022/02/16 05:44:57;;;;;;;;;;;;;;;27.02;20.17;101207.09;5074594;28;1135;-42
2022/02/16 05:47:22;;;;;;;;;;;;;;;26.86;20.25;101197.97;5076101;28;797;-42
2022/02/16 05:49:47;;;;;;;;;;;;;;;26.64;20.79;101203.03;5075423;28;888;-41
2022/02/16 05:52:13;;;;;;;;;;;;;;;26.56;20.97;101208.41;5076051;28;892;-43
2022/02/16 05:54:38;;;;;;;;;;;;;;;26.78;20.44;101201.50;5076096;28;908;-42
2022/02/16 05:57:03;;;;;;;;;;;;;;;27.04;20.63;101199.66;5076011;28;1902;-42
2022/02/16 05:59:29;;;;;;;;;;;;;;;26.85;20.74;101198.13;5075771;28;901;-42
2022/02/16 06:01:55;;;;;;;;;;;;;;;26.58;21.46;101202.84;5075483;28;1033;-42
2022/02/16 06:04:22;;;;;;;;;;;;;;;26.52;21.41;101202.53;5073972;28;1154;-41
2022/02/16 06:06:47;;;;;;;;;;;;;;;26.80;20.73;101201.34;5075230;28;1339;-42
2022/02/16 06:09:12;;;;;;;;;;;;;;;27.03;20.87;101200.66;5075749;28;1246;-44
2022/02/16 06:11:38;;;;;;;;;;;;;;;27.45;20.73;101205.97;5075798;28;1074;-43
2022/02/16 06:14:03;;;;;;;;;;;;;;;28.24;19.90;101202.38;5075294;28;881;-43
2022/02/16 06:16:28;;;;;;;;;;;;;;;29.20;18.80;101200.25;5073732;28;1951;-47
2022/02/16 06:18:54;;;;;;;;;;;;;;;29.61;18.43;101199.97;5076071;28;797;-44
2022/02/16 06:21:19;;;;;;;;;;;;;;;29.97;18.01;101206.44;5076008;28;927;-43
2022/02/16 06:23:44;;;;;;;;;;;;;;;29.93;18.03;101198.66;5075936;28;1188;-43
2022/02/16 06:26:10;;;;;;;;;;;;;;;29.98;18.01;101200.81;5075554;28;1048;-44
2022/02/16 06:28:35;;;;;;;;;;;;;;;30.06;17.89;101194.44;5072533;28;817;-44
2022/02/16 06:31:04;;;;;;;;;;;;;;;30.23;17.92;101191.50;5074621;28;849;-44
2022/02/16 06:33:30;;;;;;;;;;;;;;;30.34;17.67;101188.28;5075555;28;1071;-40
2022/02/16 06:35:55;;;;;;;;;;;;;;;30.33;17.84;101183.84;5075974;28;951;-37
2022/02/16 06:38:21;;;;;;;;;;;;;;;30.42;17.56;101187.28;5075480;28;1976;-37
2022/02/16 06:40:46;;;;;;;;;;;;;;;30.70;17.31;101186.47;5069199;28;810;-38
2022/02/16 06:43:13;;;;;;;;;;;;;;;30.92;17.18;101189.16;5075500;28;794;-39
2022/02/16 06:45:39;;;;;;;;;;;;;;;30.91;17.15;101187.50;5075268;28;906;-39
2022/02/16 06:48:04;;;;;;;;;;;;;;;30.74;17.39;101186.91;5076258;28;1297;-39
2022/02/16 06:50:30;;;;;;;;;;;;;;;30.87;17.45;101184.34;5076098;28;1731;-39
2022/02/16 06:52:55;;;;;;;;;;;;;;;31.10;17.52;101182.38;5075193;28;1376;-39
2022/02/16 06:55:20;;;;;;;;;;;;;;;31.18;17.91;101189.53;5075259;28;833;-34
2022/02/16 06:57:45;;;;;;;;;;;;;;;31.01;17.98;101185.25;5072234;28;1965;-40
2022/02/16 07:00:11;;;;;;;;;;;;;;;31.27;17.86;101182.88;5070642;28;1346;-41
2022/02/16 07:02:43;;;;;;;;;;;;;;;31.33;18.18;101184.78;5080825;28;1344;-41
2022/02/16 07:05:08;;;;;;;;;;;;;;;31.52;18.41;101183.25;5070633;28;1542;-42
2022/02/16 07:07:33;;;;;;;;;;;;;;;31.61;18.08;101181.22;5069128;28;1166;-42
2022/02/16 07:09:59;;;;;;;;;;;;;;;31.77;18.03;101174.56;5074470;28;1289;-42
2022/02/16 07:12:24;;;;;;;;;;;;;;;31.61;17.85;101175.78;5075674;28;1337;-41
2022/02/16 07:14:54;;;;;;;;;;;;;;;31.60;17.74;101168.63;5078141;28;1290;-40
2022/02/16 07:17:19;;;;;;;;;;;;;;;31.67;18.15;101176.81;5068340;28;1961;-39
2022/02/16 07:19:44;;;;;;;;;;;;;;;31.84;18.68;101171.84;5069117;28;1259;-41
2022/02/16 07:22:10;;;;;;;;;;;;;;;31.96;18.92;101185.72;5078418;28;1266;-41
2022/02/16 07:24:35;;;;;;;;;;;;;;;31.21;19.57;101179.13;5065441;28;1329;-41
2022/02/16 07:27:00;;;;;;;;;;;;;;;30.62;19.60;101175.75;5074244;28;1253;-39
2022/02/16 07:29:28;;;;;;;;;;;;;;;31.70;19.84;101167.44;5072602;28;1171;-41
2022/02/16 07:31:54;;;;;;;;;;;;;;;32.06;19.46;101163.56;5069777;28;1185;-41
2022/02/16 07:34:24;;;;;;;;;;;;;;;32.09;19.32;101170.47;5076856;28;1302;-38
2022/02/16 07:36:49;;;;;;;;;;;;;;;32.04;19.37;101164.78;5071006;28;1914;-40
2022/02/16 07:39:14;;;;;;;;;;;;;;;31.95;19.29;101169.59;5070316;28;1167;-40
2022/02/16 07:41:39;;;;;;;;;;;;;;;31.18;19.38;101154.22;5070081;28;1250;-41
2022/02/16 07:44:05;;;;;;;;;;;;;;;30.72;19.95;101161.81;5071233;28;1298;-40
2022/02/16 07:46:30;;;;;;;;;;;;;;;31.20;20.70;101163.81;5076839;28;1217;-38
2022/02/16 07:48:55;;;;;;;;;;;;;;;31.52;20.24;101156.06;5069142;28;1373;-41
2022/02/16 07:51:21;;;;;;;;;;;;;;;31.65;20.29;101157.97;5074425;28;1472;-40
2022/02/16 07:53:46;;;;;;;;;;;;;;;31.79;20.05;101152.59;5071918;28;1314;-40
2022/02/16 07:56:11;;;;;;;;;;;;;;;31.88;20.02;101142.38;5077584;28;1124;-39
2022/02/16 07:58:36;;;;;;;;;;;;;;;32.00;19.75;101150.75;5078498;28;833;-39
2022/02/16 08:01:02;;;;;;;;;;;;;;;31.80;19.07;101143.38;5072135;28;1159;-38
2022/02/16 08:03:27;;;;;;;;;;;;;;;30.82;19.32;101150.66;5076549;28;1621;-39
2022/02/16 08:05:52;;;;;;;;;;;;;;;31.34;20.22;101153.03;5069673;28;1349;-39
2022/02/16 08:08:18;;;;;;;;;;;;;;;31.72;19.98;101154.44;5067105;28;1354;-37
2022/02/16 08:10:48;;;;;;;;;;;;;;;31.93;20.12;101153.44;5071146;28;1186;-38
2022/02/16 08:13:14;;;;;;;;;;;;;;;32.12;20.09;101160.00;5067433;28;1222;-37
2022/02/16 08:15:40;;;;;;;;;;;;;;;30.95;19.32;101158.06;5072310;28;1112;-36
2022/02/16 08:18:05;;;;;;;;;;;;;;;30.22;20.01;101163.53;5077483;28;1901;-38
2022/02/16 08:20:30;;;;;;;;;;;;;;;30.16;20.02;101154.25;5071379;28;1282;-39
2022/02/16 08:22:56;;;;;;;;;;;;;;;30.05;20.46;101152.91;5070788;28;1245;-39
2022/02/16 08:25:21;;;;;;;;;;;;;;;29.96;20.61;101145.09;5074644;28;1032;-38
2022/02/16 08:27:47;;;;;;;;;;;;;;;29.80;20.66;101144.28;5074221;28;1163;-41
2022/02/16 08:30:12;;;;;;;;;;;;;;;29.61;20.92;101140.31;5070090;28;1274;-38
2022/02/16 08:32:38;;;;;;;;;;;;;;;29.40;21.44;101136.50;5067180;28;1286;-38
2022/02/16 08:35:04;;;;;;;;;;;;;;;29.50;20.61;101134.34;5066369;28;1151;-37
2022/02/16 08:37:30;;;;;;;;;;;;;;;29.32;20.48;101142.88;5068426;28;1965;-38
2022/02/16 08:39:55;;;;;;;;;;;;;;;29.29;20.45;101132.41;5070400;28;1447;-39
2022/02/16 08:42:20;;;;;;;;;;;;;;;29.18;20.50;101131.00;5067977;28;1423;-39
2022/02/16 08:44:46;;;;;;;;;;;;;;;29.34;20.52;101124.56;5071622;28;1306;-40
2022/02/16 08:47:11;;;;;;;;;;;;;;;29.13;20.69;101120.72;5074835;28;1226;-39
2022/02/16 08:49:38;;;;;;;;;;;;;;;28.99;20.42;101118.88;5077710;28;981;-40
2022/02/16 08:52:04;;;;;;;;;;;;;;;28.90;20.41;101118.09;5073751;28;1412;-39
2022/02/16 08:54:29;;;;;;;;;;;;;;;29.00;20.44;101118.69;5074164;28;1266;-40
2022/02/16 08:56:55;;;;;;;;;;;;;;;29.09;20.46;101114.84;5073434;28;1910;-40
2022/02/16 08:59:20;;;;;;;;;;;;;;;29.23;20.81;101112.31;5069184;28;1228;-40
2022/02/16 09:01:46;;;;;;;;;;;;;;;29.15;20.71;101110.56;5069276;28;1088;-40
2022/02/16 09:04:11;;;;;;;;;;;;;;;29.31;21.02;101114.09;5070627;28;1353;-37
2022/02/16 09:06:36;;;;;;;;;;;;;;;29.57;20.82;101115.44;5073739;28;1341;-38
2022/02/16 09:09:02;;;;;;;;;;;;;;;29.00;21.22;101112.41;5076932;28;837;-39
2022/02/16 09:11:29;;;;;;;;;;;;;;;28.92;21.52;101103.34;5077380;28;778;-37
2022/02/16 09:13:55;;;;;;;;;;;;;;;28.85;21.17;101099.69;5075750;28;1074;-38
2022/02/16 09:16:20;;;;;;;;;;;;;;;28.96;21.48;101101.13;5064421;28;1968;-38
2022/02/16 09:18:45;;;;;;;;;;;;;;;28.83;21.33;101099.88;5076547;28;1396;-38
2022/02/16 09:21:11;;;;;;;;;;;;;;;28.79;21.35;101095.88;5077560;28;1110;-38
2022/02/16 09:23:36;;;;;;;;;;;;;;;28.53;21.11;101093.63;5078312;28;1151;-38
2022/02/16 09:26:04;;;;;;;;;;;;;;;28.70;20.73;101091.56;5079149;28;800;-38
2022/02/16 09:28:30;;;;;;;;;;;;;;;28.69;21.53;101096.16;5076440;28;810;-38
2022/02/16 09:30:56;;;;;;;;;;;;;;;28.73;21.31;101092.03;5070964;28;940;-38
2022/02/16 09:33:22;;;;;;;;;;;;;;;28.32;21.27;101090.56;5075142;28;1440;-38
2022/02/16 09:35:47;;;;;;;;;;;;;;;28.32;21.16;101081.59;5072210;28;1047;-38
2022/02/16 09:38:13;;;;;;;;;;;;;;;28.23;21.83;101080.81;5068973;28;1977;-39
2022/02/16 09:40:38;;;;;;;;;;;;;;;28.27;21.57;101075.88;5071076;28;1197;-38
2022/02/16 09:43:04;;;;;;;;;;;;;;;28.30;21.45;101078.22;5076676;28;1083;-35
2022/02/16 09:45:29;;;;;;;;;;;;;;;28.32;22.18;101082.44;5074064;28;930;-37
2022/02/16 09:47:55;;;;;;;;;;;;;;;28.14;20.75;101071.09;5076460;28;825;-33
2022/02/16 09:50:20;;;;;;;;;;;;;;;26.57;21.23;101074.38;5074161;28;1164;-36
2022/02/16 09:52:45;;;;;;;;;;;;;;;26.35;21.27;101057.88;5073364;28;1076;-37
2022/02/16 09:55:10;;;;;;;;;;;;;;;26.45;21.45;101050.47;5076175;28;746;-38
2022/02/16 09:57:36;;;;;;;;;;;;;;;26.62;21.15;101053.97;5074942;28;1963;-38
2022/02/16 10:00:01;;;;;;;;;;;;;;;26.87;21.26;101044.94;5074597;28;1249;-32
2022/02/16 10:02:39;;;;;;;;;;;;;;;27.05;21.45;101036.63;5070364;28;962;-35
2022/02/16 10:05:05;;;;;;;;;;;;;;;26.86;21.04;101036.00;5074756;28;987;-36
2022/02/16 10:07:35;;;;;;;;;;;;;;;27.02;21.22;101027.06;5075978;28;789;-32
2022/02/16 10:10:14;;;;;;;;;;;;;;;26.72;21.18;101025.94;5070725;28;1264;-37
2022/02/16 10:12:39;;;;;;;;;;;;;;;26.50;21.50;101023.81;5076020;28;802;-36
2022/02/16 10:15:08;;;;;;;;;;;;;;;26.62;21.31;101024.28;5075822;28;859;-36
2022/02/16 10:17:33;;;;;;;;;;;;;;;26.81;21.15;101019.50;5065502;28;1898;-38
2022/02/16 10:19:59;;;;;;;;;;;;;;;26.29;21.50;101010.84;5068673;28;1419;-37
2022/02/16 10:22:25;;;;;;;;;;;;;;;26.37;21.27;101010.00;5070928;28;1289;-37
2022/02/16 10:24:51;;;;;;;;;;;;;;;27.10;21.56;101007.25;5066489;28;1359;-38
2022/02/16 10:27:16;;;;;;;;;;;;;;;27.74;21.66;101008.03;5069237;28;1237;-38
2022/02/16 10:29:42;;;;;;;;;;;;;;;27.96;21.24;101001.97;5067709;28;1264;-42
2022/02/16 10:32:07;;;;;;;;;;;;;;;27.66;21.58;100994.56;5069257;28;1303;-41
2022/02/16 10:34:50;;;;;;;;;;;;;;;27.92;22.87;100989.84;5066427;28;1351;-39
2022/02/16 10:37:19;;;;;;;;;;;;;;;28.27;21.73;100987.47;5066959;28;1914;-39
2022/02/16 10:40:00;;;;;;;;;;;;;;;27.61;22.26;100978.91;5067691;28;1282;-38
2022/02/16 10:42:26;;;;;;;;;;;;;;;27.59;22.08;100980.94;5067050;28;1251;-39
2022/02/16 10:45:02;;;;;;;;;;;;;;;27.82;22.20;100973.88;5070549;28;1345;-40
2022/02/16 10:47:27;;;;;;;;;;;;;;;27.89;21.61;100971.28;5074131;28;1037;-41
2022/02/16 10:49:55;;;;;;;;;;;;;;;27.99;22.06;100967.28;5079144;28;954;-41
2022/02/16 10:52:21;;;;;;;;;;;;;;;28.00;22.22;100968.13;5076615;28;1334;-41
2022/02/16 10:54:52;;;;;;;;;;;;;;;27.92;22.64;100958.25;5074391;28;1298;-42
2022/02/16 10:57:18;;;;;;;;;;;;;;;28.29;22.17;100950.25;5075035;28;1910;-41
2022/02/16 10:59:43;;;;;;;;;;;;;;;28.56;22.30;100956.03;5078881;28;1294;-42
2022/02/16 11:02:08;;;;;;;;;;;;;;;28.21;21.86;100943.06;5080241;28;1353;-41
2022/02/16 11:04:34;;;;;;;;;;;;;;;28.51;21.21;100944.94;5072627;28;1027;-41
2022/02/16 11:07:00;;;;;;;;;;;;;;;27.90;21.54;100938.66;5077493;28;1217;-39
2022/02/16 11:09:25;;;;;;;;;;;;;;;27.72;21.92;100929.03;5071581;28;1435;-39
2022/02/16 11:11:51;;;;;;;;;;;;;;;27.68;22.37;100926.81;5074097;28;1333;-39
2022/02/16 11:14:17;;;;;;;;;;;;;;;27.71;22.10;100916.50;5074389;28;1354;-40
2022/02/16 11:16:44;;;;;;;;;;;;;;;27.90;23.32;100906.22;5082395;28;1944;-41
2022/02/16 11:19:29;;;;;;;;;;;;;;;28.21;22.12;100899.78;5069532;28;1307;-37
2022/02/16 11:22:18;;;;;;;;;;;;;;;27.67;21.90;100896.25;5076761;28;1221;-36
2022/02/16 11:24:50;;;;;;;;;;;;;;;27.54;22.63;100894.19;5078063;28;1285;-39
2022/02/16 11:27:33;;;;;;;;;;;;;;;27.33;22.74;100889.44;5076038;28;1267;-38
2022/02/16 11:30:03;;;;;;;;;;;;;;;27.85;22.09;100887.00;5081504;28;1289;-39
2022/02/16 11:32:30;;;;;;;;;;;;;;;28.13;22.40;100891.75;5076768;28;1268;-38
2022/02/16 11:35:17;;;;;;;;;;;;;;;27.66;21.78;100889.16;5078439;28;817;-39
2022/02/16 11:37:43;;;;;;;;;;;;;;;27.33;22.19;100884.91;5074898;28;1973;-40
2022/02/16 11:40:09;;;;;;;;;;;;;;;27.31;22.04;100886.94;5078532;28;1130;-40
2022/02/16 11:42:40;;;;;;;;;;;;;;;27.30;22.00;100876.31;5076175;28;1167;-38
2022/02/16 11:45:06;;;;;;;;;;;;;;;27.42;23.05;100874.88;5073493;28;1119;-39
2022/02/16 11:47:34;;;;;;;;;;;;;;;28.15;22.59;100875.34;5076622;28;962;-38
2022/02/16 11:50:00;;;;;;;;;;;;;;;28.48;22.54;100872.25;5076485;28;1400;-40
2022/02/16 11:52:44;;;;;;;;;;;;;;;28.71;22.50;100869.41;5072493;28;1224;-41
2022/02/16 11:55:25;;;;;;;;;;;;;;;28.85;22.50;100870.41;5075190;28;1203;-41
2022/02/16 11:57:50;;;;;;;;;;;;;;;28.94;22.46;100860.31;5073696;28;1906;-40
2022/02/16 12:00:18;;;;;;;;;;;;;;;29.04;22.55;100864.56;5073570;28;1250;-40
2022/02/16 12:02:55;;;;;;;;;;;;;;;29.04;22.67;100865.44;5072763;28;1348;-41
2022/02/16 12:05:39;;;;;;;;;;;;;;;29.17;22.74;100861.16;5073829;28;1425;-39
2022/02/16 12:08:13;;;;;;;;;;;;;;;29.23;22.83;100856.84;5081009;28;1380;-40
2022/02/16 12:10:39;;;;;;;;;;;;;;;29.28;22.62;100857.09;5070740;28;1235;-39
2022/02/16 12:13:05;;;;;;;;;;;;;;;29.30;22.50;100849.59;5076708;28;1484;-38
2022/02/16 12:15:32;;;;;;;;;;;;;;;29.29;22.44;100850.63;5072515;28;1489;-37
2022/02/16 12:17:57;;;;;;;;;;;;;;;29.01;22.33;100848.72;5076472;28;1902;-40
2022/02/16 12:20:25;;;;;;;;;;;;;;;29.04;23.34;100848.31;5077892;28;1613;-41
2022/02/16 12:22:50;;;;;;;;;;;;;;;29.03;22.59;100841.25;5076511;28;1362;-38
2022/02/16 12:25:16;;;;;;;;;;;;;;;29.05;23.00;100842.72;5075157;28;1235;-39
2022/02/16 12:27:42;;;;;;;;;;;;;;;29.05;23.29;100833.75;5075737;28;1261;-41
2022/02/16 12:30:07;;;;;;;;;;;;;;;29.02;22.88;100832.28;5076935;28;1226;-41
2022/02/16 12:32:33;;;;;;;;;;;;;;;28.58;21.78;100829.50;5073966;28;1212;-40
2022/02/16 12:35:00;;;;;;;;;;;;;;;28.34;21.13;100817.97;5074059;28;1413;-40
2022/02/16 12:37:25;;;;;;;;;;;;;;;28.30;21.63;100813.97;5075428;28;1910;-40
2022/02/16 12:40:00;;;;;;;;;;;;;;;28.37;22.67;100814.09;5074745;28;1477;-41
2022/02/16 12:42:32;;;;;;;;;;;;;;;28.57;22.59;100813.47;5070720;28;1535;-39
2022/02/16 12:44:58;;;;;;;;;;;;;;;28.55;23.16;100815.50;5077340;28;1017;-39